sensor_id;sensor_type;location;lat;lon;timestamp;P1;durP1;ratioP1;P2;durP2;ratioP2
38312;SDS011;24114;52.260;6.714;2023-07-13T00:00:52;4.25;;;0.70;;
38312;SDS011;24114;52.260;6.714;2023-07-13T00:03:21;5.05;;;0.60;;
38312;SDS011;24114;52.260;6.714;2023-07-13T00:05:56;3.55;;;0.80;;
38312;SDS011;24114;52.260;6.714;2023-07-13T00:08:26;5.00;;;1.00;;
38312;SDS011;24114;52.260;6.714;2023-07-13T00:10:59;4.50;;;0.70;;
38312;SDS011;24114;52.260;6.714;2023-07-13T00:13:27;4.07;;;0.57;;
38312;SDS011;24114;52.260;6.714;2023-07-13T00:15:56;3.42;;;0.60;;
38312;SDS011;24114;52.260;6.714;2023-07-13T00:18:24;4.68;;;1.00;;
38312;SDS011;24114;52.260;6.714;2023-07-13T00:20:52;3.63;;;0.88;;
38312;SDS011;24114;52.260;6.714;2023-07-13T00:23:20;3.15;;;0.63;;
38312;SDS011;24114;52.260;6.714;2023-07-13T00:25:50;3.17;;;0.60;;
38312;SDS011;24114;52.260;6.714;2023-07-13T00:28:18;3.50;;;0.75;;
38312;SDS011;24114;52.260;6.714;2023-07-13T00:30:46;5.13;;;1.08;;
38312;SDS011;24114;52.260;6.714;2023-07-13T00:33:14;4.60;;;0.70;;
38312;SDS011;24114;52.260;6.714;2023-07-13T00:35:44;3.45;;;0.82;;
38312;SDS011;24114;52.260;6.714;2023-07-13T00:38:12;2.72;;;0.75;;
38312;SDS011;24114;52.260;6.714;2023-07-13T00:40:40;3.30;;;0.63;;
38312;SDS011;24114;52.260;6.714;2023-07-13T00:43:10;3.25;;;0.80;;
38312;SDS011;24114;52.260;6.714;2023-07-13T00:48:38;4.05;;;0.73;;
38312;SDS011;24114;52.260;6.714;2023-07-13T00:51:06;6.93;;;0.95;;
38312;SDS011;24114;52.260;6.714;2023-07-13T00:53:34;4.67;;;0.90;;
38312;SDS011;24114;52.260;6.714;2023-07-13T00:56:02;4.57;;;0.90;;
38312;SDS011;24114;52.260;6.714;2023-07-13T00:58:32;5.32;;;0.80;;
38312;SDS011;24114;52.260;6.714;2023-07-13T01:01:00;3.97;;;1.10;;
38312;SDS011;24114;52.260;6.714;2023-07-13T01:03:28;4.30;;;0.90;;
38312;SDS011;24114;52.260;6.714;2023-07-13T01:05:56;5.13;;;1.67;;
38312;SDS011;24114;52.260;6.714;2023-07-13T01:08:24;5.20;;;1.38;;
38312;SDS011;24114;52.260;6.714;2023-07-13T01:10:53;5.45;;;1.45;;
38312;SDS011;24114;52.260;6.714;2023-07-13T01:13:22;5.03;;;1.30;;
38312;SDS011;24114;52.260;6.714;2023-07-13T01:15:51;4.43;;;1.15;;
38312;SDS011;24114;52.260;6.714;2023-07-13T01:18:21;4.80;;;1.65;;
38312;SDS011;24114;52.260;6.714;2023-07-13T01:20:53;3.83;;;1.63;;
38312;SDS011;24114;52.260;6.714;2023-07-13T01:23:22;3.10;;;1.67;;
38312;SDS011;24114;52.260;6.714;2023-07-13T01:25:51;6.75;;;1.65;;
38312;SDS011;24114;52.260;6.714;2023-07-13T01:28:19;5.03;;;1.85;;
38312;SDS011;24114;52.260;6.714;2023-07-13T01:30:47;3.05;;;1.55;;
38312;SDS011;24114;52.260;6.714;2023-07-13T01:33:16;6.55;;;1.65;;
38312;SDS011;24114;52.260;6.714;2023-07-13T01:35:45;4.32;;;1.65;;
38312;SDS011;24114;52.260;6.714;2023-07-13T01:38:16;6.18;;;1.83;;
38312;SDS011;24114;52.260;6.714;2023-07-13T01:40:45;5.10;;;1.60;;
38312;SDS011;24114;52.260;6.714;2023-07-13T01:43:13;4.13;;;1.47;;
38312;SDS011;24114;52.260;6.714;2023-07-13T01:45:42;5.03;;;1.70;;
38312;SDS011;24114;52.260;6.714;2023-07-13T01:48:12;5.25;;;1.58;;
38312;SDS011;24114;52.260;6.714;2023-07-13T01:50:40;4.20;;;1.70;;
38312;SDS011;24114;52.260;6.714;2023-07-13T01:53:08;3.72;;;1.77;;
38312;SDS011;24114;52.260;6.714;2023-07-13T01:55:38;4.88;;;1.88;;
38312;SDS011;24114;52.260;6.714;2023-07-13T01:58:06;4.15;;;1.83;;
38312;SDS011;24114;52.260;6.714;2023-07-13T02:00:34;4.63;;;1.40;;
38312;SDS011;24114;52.260;6.714;2023-07-13T02:03:02;3.45;;;1.88;;
38312;SDS011;24114;52.260;6.714;2023-07-13T02:05:30;6.55;;;1.63;;
38312;SDS011;24114;52.260;6.714;2023-07-13T02:07:58;4.78;;;1.67;;
38312;SDS011;24114;52.260;6.714;2023-07-13T02:10:26;6.07;;;2.10;;
38312;SDS011;24114;52.260;6.714;2023-07-13T02:12:56;4.95;;;1.30;;
38312;SDS011;24114;52.260;6.714;2023-07-13T02:15:24;4.25;;;1.20;;
38312;SDS011;24114;52.260;6.714;2023-07-13T02:17:52;4.57;;;1.58;;
38312;SDS011;24114;52.260;6.714;2023-07-13T02:20:20;4.00;;;1.30;;
38312;SDS011;24114;52.260;6.714;2023-07-13T02:22:48;5.07;;;1.80;;
38312;SDS011;24114;52.260;6.714;2023-07-13T02:25:16;4.00;;;1.60;;
38312;SDS011;24114;52.260;6.714;2023-07-13T02:27:44;6.00;;;1.48;;
38312;SDS011;24114;52.260;6.714;2023-07-13T02:30:14;2.87;;;1.27;;
38312;SDS011;24114;52.260;6.714;2023-07-13T02:32:42;4.50;;;1.30;;
38312;SDS011;24114;52.260;6.714;2023-07-13T02:35:11;5.57;;;1.83;;
38312;SDS011;24114;52.260;6.714;2023-07-13T02:37:39;4.68;;;1.40;;
38312;SDS011;24114;52.260;6.714;2023-07-13T02:40:07;5.25;;;1.23;;
38312;SDS011;24114;52.260;6.714;2023-07-13T02:42:36;4.95;;;1.67;;
38312;SDS011;24114;52.260;6.714;2023-07-13T02:45:05;3.92;;;1.23;;
38312;SDS011;24114;52.260;6.714;2023-07-13T02:47:36;4.60;;;1.50;;
38312;SDS011;24114;52.260;6.714;2023-07-13T02:50:05;4.15;;;1.13;;
38312;SDS011;24114;52.260;6.714;2023-07-13T02:52:33;3.72;;;1.00;;
38312;SDS011;24114;52.260;6.714;2023-07-13T02:55:01;4.90;;;1.30;;
38312;SDS011;24114;52.260;6.714;2023-07-13T02:57:30;5.10;;;1.47;;
38312;SDS011;24114;52.260;6.714;2023-07-13T02:59:59;3.15;;;0.90;;
38312;SDS011;24114;52.260;6.714;2023-07-13T03:02:27;3.67;;;1.10;;
38312;SDS011;24114;52.260;6.714;2023-07-13T03:04:56;3.38;;;1.08;;
38312;SDS011;24114;52.260;6.714;2023-07-13T03:07:25;3.90;;;1.30;;
38312;SDS011;24114;52.260;6.714;2023-07-13T03:09:53;4.93;;;1.40;;
38312;SDS011;24114;52.260;6.714;2023-07-13T03:12:23;4.28;;;1.33;;
38312;SDS011;24114;52.260;6.714;2023-07-13T03:14:51;7.13;;;1.33;;
38312;SDS011;24114;52.260;6.714;2023-07-13T03:17:19;4.33;;;1.17;;
38312;SDS011;24114;52.260;6.714;2023-07-13T03:19:47;4.35;;;0.95;;
38312;SDS011;24114;52.260;6.714;2023-07-13T03:22:19;4.32;;;1.15;;
38312;SDS011;24114;52.260;6.714;2023-07-13T03:24:47;2.95;;;0.77;;
38312;SDS011;24114;52.260;6.714;2023-07-13T03:27:15;2.63;;;0.90;;
38312;SDS011;24114;52.260;6.714;2023-07-13T03:29:43;2.50;;;1.00;;
38312;SDS011;24114;52.260;6.714;2023-07-13T03:32:11;3.43;;;1.27;;
38312;SDS011;24114;52.260;6.714;2023-07-13T03:34:39;3.58;;;1.20;;
38312;SDS011;24114;52.260;6.714;2023-07-13T03:37:07;4.05;;;1.00;;
38312;SDS011;24114;52.260;6.714;2023-07-13T03:39:36;3.92;;;1.25;;
38312;SDS011;24114;52.260;6.714;2023-07-13T03:42:04;4.00;;;1.15;;
38312;SDS011;24114;52.260;6.714;2023-07-13T03:44:33;3.75;;;1.23;;
38312;SDS011;24114;52.260;6.714;2023-07-13T03:47:01;7.67;;;1.40;;
38312;SDS011;24114;52.260;6.714;2023-07-13T03:49:29;3.72;;;1.40;;
38312;SDS011;24114;52.260;6.714;2023-07-13T03:51:56;4.35;;;1.20;;
38312;SDS011;24114;52.260;6.714;2023-07-13T03:54:25;3.87;;;1.20;;
38312;SDS011;24114;52.260;6.714;2023-07-13T03:56:54;5.50;;;1.25;;
38312;SDS011;24114;52.260;6.714;2023-07-13T03:59:22;3.70;;;1.25;;
38312;SDS011;24114;52.260;6.714;2023-07-13T04:01:50;5.28;;;1.40;;
38312;SDS011;24114;52.260;6.714;2023-07-13T04:04:18;3.50;;;1.35;;
38312;SDS011;24114;52.260;6.714;2023-07-13T04:06:47;6.82;;;1.67;;
38312;SDS011;24114;52.260;6.714;2023-07-13T04:09:15;4.50;;;1.83;;
38312;SDS011;24114;52.260;6.714;2023-07-13T04:11:43;5.13;;;1.57;;
38312;SDS011;24114;52.260;6.714;2023-07-13T04:14:12;4.45;;;1.50;;
38312;SDS011;24114;52.260;6.714;2023-07-13T04:16:40;6.37;;;2.00;;
38312;SDS011;24114;52.260;6.714;2023-07-13T04:19:09;5.13;;;1.53;;
38312;SDS011;24114;52.260;6.714;2023-07-13T04:21:37;3.70;;;1.70;;
38312;SDS011;24114;52.260;6.714;2023-07-13T04:24:05;5.20;;;1.90;;
38312;SDS011;24114;52.260;6.714;2023-07-13T04:26:34;5.63;;;1.77;;
38312;SDS011;24114;52.260;6.714;2023-07-13T04:29:05;5.27;;;1.77;;
38312;SDS011;24114;52.260;6.714;2023-07-13T04:31:34;5.65;;;1.90;;
38312;SDS011;24114;52.260;6.714;2023-07-13T04:34:02;4.47;;;1.75;;
38312;SDS011;24114;52.260;6.714;2023-07-13T04:36:30;5.47;;;1.67;;
38312;SDS011;24114;52.260;6.714;2023-07-13T04:38:58;4.05;;;1.60;;
38312;SDS011;24114;52.260;6.714;2023-07-13T04:41:27;6.18;;;2.25;;
38312;SDS011;24114;52.260;6.714;2023-07-13T04:43:55;5.55;;;2.10;;
38312;SDS011;24114;52.260;6.714;2023-07-13T04:46:22;7.45;;;2.17;;
38312;SDS011;24114;52.260;6.714;2023-07-13T04:48:52;7.78;;;2.30;;
38312;SDS011;24114;52.260;6.714;2023-07-13T04:51:20;6.78;;;2.45;;
38312;SDS011;24114;52.260;6.714;2023-07-13T04:53:48;4.73;;;1.70;;
38312;SDS011;24114;52.260;6.714;2023-07-13T04:56:23;7.75;;;1.92;;
38312;SDS011;24114;52.260;6.714;2023-07-13T04:58:51;5.90;;;2.37;;
38312;SDS011;24114;52.260;6.714;2023-07-13T05:01:19;6.32;;;1.98;;
38312;SDS011;24114;52.260;6.714;2023-07-13T05:03:47;4.80;;;2.00;;
38312;SDS011;24114;52.260;6.714;2023-07-13T05:06:17;7.10;;;2.73;;
38312;SDS011;24114;52.260;6.714;2023-07-13T05:08:45;6.43;;;2.63;;
38312;SDS011;24114;52.260;6.714;2023-07-13T05:11:13;4.63;;;2.28;;
38312;SDS011;24114;52.260;6.714;2023-07-13T05:13:41;4.82;;;2.35;;
38312;SDS011;24114;52.260;6.714;2023-07-13T05:16:09;6.80;;;2.47;;
38312;SDS011;24114;52.260;6.714;2023-07-13T05:18:37;6.95;;;2.60;;
38312;SDS011;24114;52.260;6.714;2023-07-13T05:21:09;8.38;;;2.25;;
38312;SDS011;24114;52.260;6.714;2023-07-13T05:23:40;6.97;;;2.58;;
38312;SDS011;24114;52.260;6.714;2023-07-13T05:26:09;6.55;;;2.90;;
38312;SDS011;24114;52.260;6.714;2023-07-13T05:28:37;7.63;;;2.50;;
38312;SDS011;24114;52.260;6.714;2023-07-13T05:31:06;8.23;;;2.83;;
38312;SDS011;24114;52.260;6.714;2023-07-13T05:33:35;6.97;;;2.85;;
38312;SDS011;24114;52.260;6.714;2023-07-13T05:36:04;6.43;;;2.63;;
38312;SDS011;24114;52.260;6.714;2023-07-13T05:38:32;7.53;;;2.90;;
38312;SDS011;24114;52.260;6.714;2023-07-13T05:41:01;4.53;;;2.40;;
38312;SDS011;24114;52.260;6.714;2023-07-13T05:43:31;7.67;;;2.60;;
38312;SDS011;24114;52.260;6.714;2023-07-13T05:46:00;6.80;;;2.90;;
38312;SDS011;24114;52.260;6.714;2023-07-13T05:48:28;7.88;;;3.00;;
38312;SDS011;24114;52.260;6.714;2023-07-13T05:50:55;9.90;;;2.88;;
38312;SDS011;24114;52.260;6.714;2023-07-13T05:54:13;7.80;;;3.13;;
38312;SDS011;24114;52.260;6.714;2023-07-13T05:56:41;7.22;;;3.20;;
38312;SDS011;24114;52.260;6.714;2023-07-13T05:59:09;7.40;;;3.45;;
38312;SDS011;24114;52.260;6.714;2023-07-13T06:01:37;7.68;;;3.25;;
38312;SDS011;24114;52.260;6.714;2023-07-13T06:04:05;8.70;;;3.70;;
38312;SDS011;24114;52.260;6.714;2023-07-13T06:06:33;7.50;;;3.55;;
38312;SDS011;24114;52.260;6.714;2023-07-13T06:09:01;6.55;;;3.40;;
38312;SDS011;24114;52.260;6.714;2023-07-13T06:11:30;8.52;;;3.40;;
38312;SDS011;24114;52.260;6.714;2023-07-13T06:13:58;8.18;;;3.80;;
38312;SDS011;24114;52.260;6.714;2023-07-13T06:16:26;9.93;;;3.67;;
38312;SDS011;24114;52.260;6.714;2023-07-13T06:18:54;8.25;;;3.50;;
38312;SDS011;24114;52.260;6.714;2023-07-13T06:21:22;7.70;;;3.97;;
38312;SDS011;24114;52.260;6.714;2023-07-13T06:23:51;7.55;;;3.83;;
38312;SDS011;24114;52.260;6.714;2023-07-13T06:26:20;9.68;;;3.97;;
38312;SDS011;24114;52.260;6.714;2023-07-13T06:28:49;7.60;;;3.80;;
38312;SDS011;24114;52.260;6.714;2023-07-13T06:31:17;9.18;;;4.40;;
38312;SDS011;24114;52.260;6.714;2023-07-13T06:33:45;8.23;;;4.43;;
38312;SDS011;24114;52.260;6.714;2023-07-13T06:36:13;10.82;;;4.85;;
38312;SDS011;24114;52.260;6.714;2023-07-13T06:38:41;10.07;;;5.72;;
38312;SDS011;24114;52.260;6.714;2023-07-13T06:41:09;10.20;;;4.40;;
38312;SDS011;24114;52.260;6.714;2023-07-13T06:43:38;8.20;;;4.63;;
38312;SDS011;24114;52.260;6.714;2023-07-13T06:46:07;9.75;;;5.30;;
38312;SDS011;24114;52.260;6.714;2023-07-13T06:48:35;11.77;;;5.20;;
38312;SDS011;24114;52.260;6.714;2023-07-13T06:51:03;10.15;;;5.60;;
38312;SDS011;24114;52.260;6.714;2023-07-13T06:53:31;11.80;;;6.53;;
38312;SDS011;24114;52.260;6.714;2023-07-13T06:55:59;10.60;;;6.32;;
38312;SDS011;24114;52.260;6.714;2023-07-13T06:58:27;10.38;;;5.03;;
38312;SDS011;24114;52.260;6.714;2023-07-13T07:00:55;9.75;;;6.07;;
38312;SDS011;24114;52.260;6.714;2023-07-13T07:03:24;12.15;;;6.30;;
38312;SDS011;24114;52.260;6.714;2023-07-13T07:05:52;9.95;;;6.53;;
38312;SDS011;24114;52.260;6.714;2023-07-13T07:08:20;9.15;;;6.10;;
38312;SDS011;24114;52.260;6.714;2023-07-13T07:10:48;12.60;;;7.47;;
38312;SDS011;24114;52.260;6.714;2023-07-13T07:13:20;12.50;;;7.63;;
38312;SDS011;24114;52.260;6.714;2023-07-13T07:15:49;13.20;;;8.18;;
38312;SDS011;24114;52.260;6.714;2023-07-13T07:18:18;13.43;;;7.30;;
38312;SDS011;24114;52.260;6.714;2023-07-13T07:20:47;11.43;;;7.93;;
38312;SDS011;24114;52.260;6.714;2023-07-13T07:23:16;10.85;;;7.43;;
38312;SDS011;24114;52.260;6.714;2023-07-13T07:25:45;10.47;;;7.27;;
38312;SDS011;24114;52.260;6.714;2023-07-13T07:28:14;13.07;;;7.25;;
38312;SDS011;24114;52.260;6.714;2023-07-13T07:30:47;15.63;;;8.18;;
38312;SDS011;24114;52.260;6.714;2023-07-13T07:33:19;12.05;;;7.85;;
38312;SDS011;24114;52.260;6.714;2023-07-13T07:35:52;12.38;;;8.57;;
38312;SDS011;24114;52.260;6.714;2023-07-13T07:38:24;12.98;;;8.20;;
38312;SDS011;24114;52.260;6.714;2023-07-13T07:40:52;14.13;;;8.63;;
38312;SDS011;24114;52.260;6.714;2023-07-13T07:43:25;12.43;;;8.60;;
38312;SDS011;24114;52.260;6.714;2023-07-13T07:45:53;15.95;;;9.05;;
38312;SDS011;24114;52.260;6.714;2023-07-13T07:48:21;15.10;;;9.13;;
38312;SDS011;24114;52.260;6.714;2023-07-13T07:50:50;14.95;;;8.65;;
38312;SDS011;24114;52.260;6.714;2023-07-13T07:53:18;14.00;;;9.20;;
38312;SDS011;24114;52.260;6.714;2023-07-13T07:55:46;14.07;;;9.10;;
38312;SDS011;24114;52.260;6.714;2023-07-13T07:58:17;13.65;;;8.60;;
38312;SDS011;24114;52.260;6.714;2023-07-13T08:00:48;12.50;;;8.85;;
38312;SDS011;24114;52.260;6.714;2023-07-13T08:03:19;15.13;;;9.63;;
38312;SDS011;24114;52.260;6.714;2023-07-13T08:05:53;15.05;;;9.30;;
38312;SDS011;24114;52.260;6.714;2023-07-13T08:08:41;14.13;;;9.20;;
38312;SDS011;24114;52.260;6.714;2023-07-13T08:11:09;14.05;;;10.18;;
38312;SDS011;24114;52.260;6.714;2023-07-13T08:13:40;11.63;;;8.25;;
38312;SDS011;24114;52.260;6.714;2023-07-13T08:16:09;14.85;;;9.32;;
38312;SDS011;24114;52.260;6.714;2023-07-13T08:18:38;13.90;;;8.70;;
38312;SDS011;24114;52.260;6.714;2023-07-13T08:21:07;12.18;;;9.10;;
38312;SDS011;24114;52.260;6.714;2023-07-13T08:23:37;13.63;;;8.73;;
38312;SDS011;24114;52.260;6.714;2023-07-13T08:26:05;17.98;;;9.25;;
38312;SDS011;24114;52.260;6.714;2023-07-13T08:28:33;13.20;;;8.82;;
38312;SDS011;24114;52.260;6.714;2023-07-13T08:31:01;11.63;;;8.43;;
38312;SDS011;24114;52.260;6.714;2023-07-13T08:33:30;12.05;;;7.78;;
38312;SDS011;24114;52.260;6.714;2023-07-13T08:35:58;10.00;;;7.18;;
38312;SDS011;24114;52.260;6.714;2023-07-13T08:38:27;12.98;;;8.18;;
38312;SDS011;24114;52.260;6.714;2023-07-13T08:41:59;12.60;;;7.23;;
38312;SDS011;24114;52.260;6.714;2023-07-13T08:44:30;11.70;;;6.90;;
38312;SDS011;24114;52.260;6.714;2023-07-13T08:47:08;11.68;;;7.90;;
38312;SDS011;24114;52.260;6.714;2023-07-13T08:49:37;9.73;;;6.85;;
38312;SDS011;24114;52.260;6.714;2023-07-13T08:52:07;12.60;;;7.80;;
38312;SDS011;24114;52.260;6.714;2023-07-13T08:54:39;12.13;;;7.75;;
38312;SDS011;24114;52.260;6.714;2023-07-13T08:57:12;11.45;;;7.97;;
38312;SDS011;24114;52.260;6.714;2023-07-13T08:59:41;12.50;;;8.57;;
38312;SDS011;24114;52.260;6.714;2023-07-13T09:02:21;14.20;;;8.97;;
38312;SDS011;24114;52.260;6.714;2023-07-13T09:04:54;15.00;;;8.75;;
38312;SDS011;24114;52.260;6.714;2023-07-13T09:07:29;15.40;;;9.57;;
38312;SDS011;24114;52.260;6.714;2023-07-13T09:10:06;12.70;;;8.00;;
38312;SDS011;24114;52.260;6.714;2023-07-13T09:12:47;13.27;;;8.50;;
38312;SDS011;24114;52.260;6.714;2023-07-13T09:15:22;14.32;;;9.05;;
38312;SDS011;24114;52.260;6.714;2023-07-13T09:17:54;12.05;;;8.25;;
38312;SDS011;24114;52.260;6.714;2023-07-13T09:20:25;15.02;;;9.02;;
38312;SDS011;24114;52.260;6.714;2023-07-13T09:22:55;14.77;;;9.88;;
38312;SDS011;24114;52.260;6.714;2023-07-13T09:25:30;14.32;;;9.68;;
38312;SDS011;24114;52.260;6.714;2023-07-13T09:28:02;13.13;;;8.80;;
38312;SDS011;24114;52.260;6.714;2023-07-13T09:30:37;14.75;;;8.93;;
38312;SDS011;24114;52.260;6.714;2023-07-13T09:33:08;16.03;;;9.13;;
38312;SDS011;24114;52.260;6.714;2023-07-13T09:35:36;13.02;;;8.80;;
38312;SDS011;24114;52.260;6.714;2023-07-13T09:38:12;13.25;;;8.98;;
38312;SDS011;24114;52.260;6.714;2023-07-13T09:40:59;18.60;;;9.60;;
38312;SDS011;24114;52.260;6.714;2023-07-13T09:43:32;14.85;;;8.40;;
38312;SDS011;24114;52.260;6.714;2023-07-13T09:46:00;12.50;;;8.95;;
38312;SDS011;24114;52.260;6.714;2023-07-13T09:48:33;14.23;;;9.25;;
38312;SDS011;24114;52.260;6.714;2023-07-13T09:51:06;14.67;;;9.03;;
38312;SDS011;24114;52.260;6.714;2023-07-13T09:53:38;15.10;;;9.43;;
38312;SDS011;24114;52.260;6.714;2023-07-13T09:56:11;15.45;;;9.52;;
38312;SDS011;24114;52.260;6.714;2023-07-13T09:58:48;14.82;;;9.40;;
38312;SDS011;24114;52.260;6.714;2023-07-13T10:01:16;16.27;;;9.30;;
38312;SDS011;24114;52.260;6.714;2023-07-13T10:03:59;13.52;;;8.68;;
38312;SDS011;24114;52.260;6.714;2023-07-13T10:06:27;11.38;;;8.20;;
38312;SDS011;24114;52.260;6.714;2023-07-13T10:08:55;13.33;;;8.50;;
38312;SDS011;24114;52.260;6.714;2023-07-13T10:11:26;12.07;;;8.05;;
38312;SDS011;24114;52.260;6.714;2023-07-13T10:13:57;13.05;;;7.10;;
38312;SDS011;24114;52.260;6.714;2023-07-13T10:16:28;11.85;;;7.05;;
38312;SDS011;24114;52.260;6.714;2023-07-13T10:19:00;11.93;;;6.95;;
38312;SDS011;24114;52.260;6.714;2023-07-13T10:21:32;10.80;;;6.75;;
38312;SDS011;24114;52.260;6.714;2023-07-13T10:24:04;11.73;;;7.03;;
38312;SDS011;24114;52.260;6.714;2023-07-13T10:26:37;11.98;;;6.60;;
38312;SDS011;24114;52.260;6.714;2023-07-13T10:29:11;11.45;;;6.57;;
38312;SDS011;24114;52.260;6.714;2023-07-13T10:31:40;11.55;;;6.85;;
38312;SDS011;24114;52.260;6.714;2023-07-13T10:34:09;9.02;;;5.60;;
38312;SDS011;24114;52.260;6.714;2023-07-13T10:36:39;9.93;;;5.93;;
38312;SDS011;24114;52.260;6.714;2023-07-13T10:39:09;10.57;;;5.72;;
38312;SDS011;24114;52.260;6.714;2023-07-13T10:41:43;9.95;;;5.90;;
38312;SDS011;24114;52.260;6.714;2023-07-13T10:44:15;10.15;;;5.40;;
38312;SDS011;24114;52.260;6.714;2023-07-13T10:46:47;8.18;;;5.20;;
38312;SDS011;24114;52.260;6.714;2023-07-13T10:49:15;8.32;;;5.78;;
38312;SDS011;24114;52.260;6.714;2023-07-13T10:51:44;10.35;;;6.70;;
38312;SDS011;24114;52.260;6.714;2023-07-13T10:54:19;11.95;;;6.97;;
38312;SDS011;24114;52.260;6.714;2023-07-13T10:56:52;12.75;;;6.78;;
38312;SDS011;24114;52.260;6.714;2023-07-13T10:59:26;10.68;;;6.97;;
38312;SDS011;24114;52.260;6.714;2023-07-13T11:01:56;9.02;;;6.60;;
38312;SDS011;24114;52.260;6.714;2023-07-13T11:04:26;11.57;;;6.97;;
38312;SDS011;24114;52.260;6.714;2023-07-13T11:06:56;9.10;;;6.95;;
38312;SDS011;24114;52.260;6.714;2023-07-13T11:09:36;12.60;;;8.18;;
38312;SDS011;24114;52.260;6.714;2023-07-13T11:12:07;10.20;;;7.68;;
38312;SDS011;24114;52.260;6.714;2023-07-13T11:15:01;10.27;;;7.80;;
38312;SDS011;24114;52.260;6.714;2023-07-13T11:17:35;12.57;;;8.00;;
38312;SDS011;24114;52.260;6.714;2023-07-13T11:23:07;9.73;;;5.95;;
38312;SDS011;24114;52.260;6.714;2023-07-13T11:25:43;7.73;;;5.00;;
38312;SDS011;24114;52.260;6.714;2023-07-13T11:28:21;4.50;;;3.03;;
38312;SDS011;24114;52.260;6.714;2023-07-13T11:31:02;4.30;;;1.98;;
38312;SDS011;24114;52.260;6.714;2023-07-13T11:33:50;3.88;;;1.88;;
38312;SDS011;24114;52.260;6.714;2023-07-13T11:36:21;2.85;;;1.73;;
38312;SDS011;24114;52.260;6.714;2023-07-13T11:38:55;3.65;;;1.45;;
38312;SDS011;24114;52.260;6.714;2023-07-13T11:41:27;2.28;;;1.45;;
38312;SDS011;24114;52.260;6.714;2023-07-13T11:44:04;3.60;;;1.75;;
38312;SDS011;24114;52.260;6.714;2023-07-13T11:46:36;3.97;;;1.60;;
38312;SDS011;24114;52.260;6.714;2023-07-13T11:49:06;3.70;;;1.40;;
38312;SDS011;24114;52.260;6.714;2023-07-13T11:51:35;2.80;;;0.60;;
38312;SDS011;24114;52.260;6.714;2023-07-13T11:54:04;0.98;;;0.30;;
38312;SDS011;24114;52.260;6.714;2023-07-13T11:56:34;1.00;;;0.20;;
38312;SDS011;24114;52.260;6.714;2023-07-13T11:59:03;1.42;;;0.17;;
38312;SDS011;24114;52.260;6.714;2023-07-13T12:01:32;1.10;;;0.20;;
38312;SDS011;24114;52.260;6.714;2023-07-13T12:04:03;1.25;;;0.20;;
38312;SDS011;24114;52.260;6.714;2023-07-13T12:06:33;1.25;;;0.30;;
38312;SDS011;24114;52.260;6.714;2023-07-13T12:09:03;1.60;;;0.40;;
38312;SDS011;24114;52.260;6.714;2023-07-13T12:11:40;2.20;;;0.70;;
38312;SDS011;24114;52.260;6.714;2023-07-13T12:14:12;1.25;;;0.35;;
38312;SDS011;24114;52.260;6.714;2023-07-13T12:16:41;1.73;;;0.40;;
38312;SDS011;24114;52.260;6.714;2023-07-13T12:19:15;1.05;;;0.40;;
38312;SDS011;24114;52.260;6.714;2023-07-13T12:21:45;0.82;;;0.25;;
38312;SDS011;24114;52.260;6.714;2023-07-13T12:24:14;0.90;;;0.43;;
38312;SDS011;24114;52.260;6.714;2023-07-13T12:26:43;2.50;;;0.90;;
38312;SDS011;24114;52.260;6.714;2023-07-13T12:29:13;1.30;;;0.67;;
38312;SDS011;24114;52.260;6.714;2023-07-13T12:31:44;2.60;;;0.97;;
38312;SDS011;24114;52.260;6.714;2023-07-13T12:34:49;3.13;;;1.70;;
38312;SDS011;24114;52.260;6.714;2023-07-13T12:37:58;2.10;;;1.42;;
38312;SDS011;24114;52.260;6.714;2023-07-13T12:40:28;2.83;;;1.88;;
38312;SDS011;24114;52.260;6.714;2023-07-13T12:43:02;2.70;;;2.30;;
38312;SDS011;24114;52.260;6.714;2023-07-13T12:45:33;3.22;;;2.15;;
38312;SDS011;24114;52.260;6.714;2023-07-13T12:48:03;4.10;;;2.90;;
38312;SDS011;24114;52.260;6.714;2023-07-13T12:50:37;3.80;;;2.95;;
38312;SDS011;24114;52.260;6.714;2023-07-13T12:53:12;5.57;;;2.42;;
38312;SDS011;24114;52.260;6.714;2023-07-13T12:55:41;4.00;;;2.15;;
38312;SDS011;24114;52.260;6.714;2023-07-13T12:58:13;3.13;;;2.13;;
38312;SDS011;24114;52.260;6.714;2023-07-13T13:00:48;2.50;;;1.52;;
38312;SDS011;24114;52.260;6.714;2023-07-13T13:03:21;2.50;;;1.10;;
38312;SDS011;24114;52.260;6.714;2023-07-13T13:05:56;2.47;;;1.02;;
38312;SDS011;24114;52.260;6.714;2023-07-13T13:08:28;3.10;;;1.30;;
38312;SDS011;24114;52.260;6.714;2023-07-13T13:10:56;1.90;;;1.07;;
38312;SDS011;24114;52.260;6.714;2023-07-13T13:13:24;2.40;;;1.00;;
38312;SDS011;24114;52.260;6.714;2023-07-13T13:15:52;2.45;;;1.20;;
38312;SDS011;24114;52.260;6.714;2023-07-13T13:18:20;2.70;;;1.17;;
38312;SDS011;24114;52.260;6.714;2023-07-13T13:20:50;2.75;;;1.20;;
38312;SDS011;24114;52.260;6.714;2023-07-13T13:23:19;1.85;;;1.00;;
38312;SDS011;24114;52.260;6.714;2023-07-13T13:25:50;2.80;;;0.90;;
38312;SDS011;24114;52.260;6.714;2023-07-13T13:28:19;1.67;;;0.90;;
38312;SDS011;24114;52.260;6.714;2023-07-13T13:30:48;2.13;;;0.83;;
38312;SDS011;24114;52.260;6.714;2023-07-13T13:33:19;1.50;;;0.90;;
38312;SDS011;24114;52.260;6.714;2023-07-13T13:35:48;2.10;;;1.17;;
38312;SDS011;24114;52.260;6.714;2023-07-13T13:38:19;2.63;;;0.90;;
38312;SDS011;24114;52.260;6.714;2023-07-13T13:40:48;2.42;;;1.20;;
38312;SDS011;24114;52.260;6.714;2023-07-13T13:43:17;3.33;;;1.48;;
38312;SDS011;24114;52.260;6.714;2023-07-13T13:45:46;2.03;;;1.27;;
38312;SDS011;24114;52.260;6.714;2023-07-13T13:48:15;1.92;;;1.20;;
38312;SDS011;24114;52.260;6.714;2023-07-13T13:50:45;2.35;;;1.25;;
38312;SDS011;24114;52.260;6.714;2023-07-13T13:53:13;1.90;;;1.40;;
38312;SDS011;24114;52.260;6.714;2023-07-13T13:55:41;1.38;;;0.80;;
38312;SDS011;24114;52.260;6.714;2023-07-13T13:58:09;2.40;;;1.30;;
38312;SDS011;24114;52.260;6.714;2023-07-13T14:00:39;3.25;;;2.10;;
38312;SDS011;24114;52.260;6.714;2023-07-13T14:03:08;2.10;;;1.43;;
38312;SDS011;24114;52.260;6.714;2023-07-13T14:05:42;3.03;;;1.67;;
38312;SDS011;24114;52.260;6.714;2023-07-13T14:08:11;2.97;;;2.40;;
38312;SDS011;24114;52.260;6.714;2023-07-13T14:10:40;4.83;;;3.10;;
38312;SDS011;24114;52.260;6.714;2023-07-13T14:13:14;6.00;;;3.80;;
38312;SDS011;24114;52.260;6.714;2023-07-13T14:15:46;4.68;;;2.97;;
38312;SDS011;24114;52.260;6.714;2023-07-13T14:18:14;4.90;;;3.30;;
38312;SDS011;24114;52.260;6.714;2023-07-13T14:20:44;5.97;;;3.40;;
38312;SDS011;24114;52.260;6.714;2023-07-13T14:23:13;3.72;;;2.20;;
38312;SDS011;24114;52.260;6.714;2023-07-13T14:25:41;3.72;;;2.30;;
38312;SDS011;24114;52.260;6.714;2023-07-13T14:28:14;4.30;;;2.47;;
38312;SDS011;24114;52.260;6.714;2023-07-13T14:30:48;2.90;;;2.22;;
38312;SDS011;24114;52.260;6.714;2023-07-13T14:33:17;3.67;;;1.70;;
38312;SDS011;24114;52.260;6.714;2023-07-13T14:35:45;4.50;;;2.53;;
38312;SDS011;24114;52.260;6.714;2023-07-13T14:38:15;3.25;;;2.08;;
38312;SDS011;24114;52.260;6.714;2023-07-13T14:40:45;2.67;;;1.45;;
38312;SDS011;24114;52.260;6.714;2023-07-13T14:43:13;2.10;;;1.02;;
38312;SDS011;24114;52.260;6.714;2023-07-13T14:45:42;2.65;;;1.30;;
38312;SDS011;24114;52.260;6.714;2023-07-13T14:48:17;3.20;;;1.65;;
38312;SDS011;24114;52.260;6.714;2023-07-13T14:50:50;2.70;;;1.70;;
38312;SDS011;24114;52.260;6.714;2023-07-13T14:53:21;2.83;;;1.60;;
38312;SDS011;24114;52.260;6.714;2023-07-13T14:55:50;3.78;;;1.90;;
38312;SDS011;24114;52.260;6.714;2023-07-13T14:58:18;4.25;;;1.25;;
38312;SDS011;24114;52.260;6.714;2023-07-13T15:00:46;3.87;;;1.43;;
38312;SDS011;24114;52.260;6.714;2023-07-13T15:03:20;3.90;;;1.30;;
38312;SDS011;24114;52.260;6.714;2023-07-13T15:05:49;3.58;;;1.58;;
38312;SDS011;24114;52.260;6.714;2023-07-13T15:08:19;2.33;;;1.20;;